createdAt,value
2022-09-28T00:01:14.803Z,100.00
2022-09-28T00:03:42.009Z,100.00
2022-09-28T00:06:11.386Z,100.00
2022-09-28T00:08:38.542Z,100.00
2022-09-28T00:11:12.342Z,100.00
2022-09-28T00:13:40.368Z,100.00
2022-09-28T00:16:10.515Z,100.00
2022-09-28T00:18:37.631Z,100.00
2022-09-28T00:21:19.100Z,100.00
2022-09-28T00:24:04.762Z,100.00
2022-09-28T00:26:33.371Z,100.00
2022-09-28T00:29:02.074Z,100.00
2022-09-28T00:31:33.524Z,100.00
2022-09-28T00:34:07.703Z,100.00
2022-09-28T00:36:35.143Z,100.00
2022-09-28T00:39:09.225Z,100.00
2022-09-28T00:41:36.310Z,100.00
2022-09-28T00:44:28.405Z,100.00
2022-09-28T00:47:21.726Z,100.00
2022-09-28T00:49:51.466Z,100.00
2022-09-28T00:52:53.314Z,100.00
2022-09-28T00:55:39.004Z,100.00
2022-09-28T00:58:10.334Z,100.00
2022-09-28T01:00:40.897Z,100.00
2022-09-28T01:03:09.643Z,100.00
2022-09-28T01:05:39.611Z,100.00
2022-09-28T01:08:09.176Z,100.00
2022-09-28T01:10:35.911Z,100.00
2022-09-28T01:13:02.755Z,100.00
2022-09-28T01:15:31.241Z,100.00
2022-09-28T01:18:03.736Z,100.00
2022-09-28T01:20:42.669Z,100.00
2022-09-28T01:23:13.440Z,100.00
2022-09-28T01:25:43.027Z,100.00
2022-09-28T01:28:14.662Z,100.00
2022-09-28T01:30:46.227Z,100.00
2022-09-28T01:33:22.464Z,100.00
2022-09-28T01:35:57.672Z,100.00
2022-09-28T01:38:30.898Z,100.00
2022-09-28T01:41:00.503Z,100.00
2022-09-28T01:43:28.250Z,100.00
2022-09-28T01:46:00.704Z,100.00
2022-09-28T01:49:11.630Z,100.00
2022-09-28T01:51:44.994Z,100.00
2022-09-28T01:54:22.027Z,100.00
2022-09-28T01:56:55.049Z,100.00
2022-09-28T01:59:34.607Z,100.00
2022-09-28T02:02:12.342Z,100.00
2022-09-28T02:04:51.285Z,100.00
2022-09-28T02:07:32.267Z,100.00
2022-09-28T02:10:19.998Z,100.00
2022-09-28T02:12:51.344Z,100.00
2022-09-28T02:15:23.194Z,100.00
2022-09-28T02:17:50.650Z,100.00
2022-09-28T02:20:17.608Z,100.00
2022-09-28T02:22:56.353Z,100.00
2022-09-28T02:25:40.707Z,100.00
2022-09-28T02:28:12.218Z,100.00
2022-09-28T02:30:40.637Z,100.00
2022-09-28T02:33:38.398Z,100.00
2022-09-28T02:36:05.761Z,100.00
2022-09-28T02:38:32.739Z,100.00
2022-09-28T02:41:30.159Z,100.00
2022-09-28T02:44:12.028Z,100.00
2022-09-28T02:46:52.529Z,100.00
2022-09-28T02:49:38.726Z,100.00
2022-09-28T02:52:05.414Z,100.00
2022-09-28T02:54:57.757Z,100.00
2022-09-28T02:57:44.816Z,100.00
2022-09-28T03:00:19.970Z,100.00
2022-09-28T03:03:24.187Z,100.00
2022-09-28T03:06:15.020Z,100.00
2022-09-28T03:08:53.362Z,100.00
2022-09-28T03:11:32.735Z,100.00
2022-09-28T03:14:00.307Z,100.00
2022-09-28T03:16:28.343Z,100.00
2022-09-28T03:18:55.164Z,100.00
2022-09-28T03:21:21.959Z,100.00
2022-09-28T03:23:48.952Z,100.00
2022-09-28T03:26:16.911Z,100.00
2022-09-28T03:28:43.658Z,100.00
2022-09-28T03:31:10.669Z,100.00
2022-09-28T03:33:37.558Z,100.00
2022-09-28T03:36:04.755Z,100.00
2022-09-28T03:38:31.780Z,100.00
2022-09-28T03:41:00.281Z,100.00
2022-09-28T03:43:28.358Z,100.00
2022-09-28T03:45:57.101Z,100.00
2022-09-28T03:48:35.499Z,100.00
2022-09-28T03:51:05.568Z,100.00
2022-09-28T03:53:33.696Z,100.00
2022-09-28T03:56:08.933Z,100.00
2022-09-28T03:58:35.886Z,100.00
2022-09-28T04:01:04.923Z,100.00
2022-09-28T04:03:32.439Z,100.00
2022-09-28T04:05:59.912Z,100.00
2022-09-28T04:08:26.836Z,100.00
2022-09-28T04:10:59.410Z,100.00
2022-09-28T04:13:27.657Z,100.00
2022-09-28T04:15:56.265Z,100.00
2022-09-28T04:18:24.067Z,100.00
2022-09-28T04:21:09.029Z,100.00
2022-09-28T04:23:37.552Z,100.00
2022-09-28T04:26:06.810Z,100.00
2022-09-28T04:28:53.057Z,100.00
2022-09-28T04:31:22.617Z,100.00
2022-09-28T04:33:49.739Z,100.00
2022-09-28T04:36:18.009Z,100.00
2022-09-28T04:38:53.504Z,100.00
2022-09-28T04:41:22.518Z,100.00
2022-09-28T04:43:50.326Z,100.00
2022-09-28T04:46:17.212Z,100.00
2022-09-28T04:48:44.267Z,100.00
2022-09-28T04:51:11.718Z,100.00
2022-09-28T04:53:38.547Z,100.00
2022-09-28T04:56:10.257Z,100.00
2022-09-28T04:58:37.879Z,100.00
2022-09-28T05:01:10.560Z,100.00
2022-09-28T05:03:37.970Z,100.00
2022-09-28T05:06:07.026Z,100.00
2022-09-28T05:08:35.377Z,100.00
2022-09-28T05:11:07.236Z,100.00
2022-09-28T05:13:41.739Z,100.00
2022-09-28T05:16:10.153Z,100.00
2022-09-28T05:18:37.348Z,100.00
2022-09-28T05:21:09.318Z,100.00
2022-09-28T05:23:36.109Z,100.00
2022-09-28T05:26:03.101Z,100.00
2022-09-28T05:28:31.855Z,100.00
2022-09-28T05:31:00.200Z,100.00
2022-09-28T05:33:28.296Z,100.00
2022-09-28T05:35:59.014Z,100.00
2022-09-28T05:38:28.493Z,100.00
2022-09-28T05:40:55.390Z,100.00
2022-09-28T05:43:22.681Z,100.00
2022-09-28T05:45:55.059Z,100.00
2022-09-28T05:48:23.125Z,97.81
2022-09-28T05:50:53.427Z,95.12
2022-09-28T05:53:20.376Z,94.43
2022-09-28T05:55:47.228Z,87.71
2022-09-28T05:58:14.605Z,85.40
2022-09-28T06:00:41.435Z,82.47
2022-09-28T06:03:11.787Z,85.78
2022-09-28T06:05:39.780Z,84.36
2022-09-28T06:08:08.610Z,87.15
2022-09-28T06:10:35.497Z,83.48
2022-09-28T06:13:03.080Z,81.21
2022-09-28T06:15:31.821Z,80.27
2022-09-28T06:18:10.953Z,81.21
2022-09-28T06:20:41.275Z,75.47
2022-09-28T06:23:12.211Z,75.41
2022-09-28T06:25:39.530Z,73.18
2022-09-28T06:28:07.659Z,76.90
2022-09-28T06:30:38.202Z,75.17
2022-09-28T06:33:08.412Z,74.52
2022-09-28T06:35:35.341Z,75.90
2022-09-28T06:38:02.213Z,73.27
2022-09-28T06:40:29.415Z,73.94
2022-09-28T06:43:10.002Z,74.81
2022-09-28T06:45:38.258Z,69.72
2022-09-28T06:48:05.979Z,71.15
2022-09-28T06:50:38.997Z,68.08
2022-09-28T06:53:09.508Z,59.94
2022-09-28T06:55:40.135Z,55.83
2022-09-28T06:58:11.071Z,55.59
2022-09-28T07:00:39.803Z,55.52
2022-09-28T07:03:10.516Z,58.44
2022-09-28T07:05:42.434Z,58.95
2022-09-28T07:08:09.307Z,58.43
2022-09-28T07:10:36.344Z,51.60
2022-09-28T07:13:05.585Z,53.57
2022-09-28T07:15:33.097Z,53.39
2022-09-28T07:18:05.826Z,53.67
2022-09-28T07:20:49.342Z,56.05
2022-09-28T07:23:20.116Z,57.85
2022-09-28T07:25:49.633Z,63.53
2022-09-28T07:28:17.449Z,67.39
2022-09-28T07:30:44.949Z,66.89
2022-09-28T07:33:15.089Z,61.93
2022-09-28T07:35:43.026Z,59.23
2022-09-28T07:38:11.000Z,56.63
2022-09-28T07:40:56.610Z,51.71
2022-09-28T07:43:23.564Z,50.67
2022-09-28T07:45:52.688Z,47.78
2022-09-28T07:48:20.399Z,43.61
2022-09-28T07:50:50.288Z,42.75
2022-09-28T07:53:21.857Z,43.82
2022-09-28T07:55:56.440Z,46.23
2022-09-28T07:58:23.516Z,45.99
2022-09-28T08:00:50.706Z,48.11
2022-09-28T08:03:19.355Z,53.02
2022-09-28T08:05:47.514Z,53.24
2022-09-28T08:08:15.077Z,54.67
2022-09-28T08:10:46.920Z,55.18
2022-09-28T08:13:16.421Z,53.73
2022-09-28T08:15:43.274Z,50.14
2022-09-28T08:18:10.564Z,47.61
2022-09-28T08:20:56.286Z,47.02
2022-09-28T08:23:23.690Z,42.10
2022-09-28T08:25:54.979Z,41.18
2022-09-28T08:28:23.227Z,43.09
2022-09-28T08:30:50.908Z,44.17
2022-09-28T08:33:20.416Z,47.55
2022-09-28T08:35:47.562Z,47.07
2022-09-28T08:38:14.758Z,46.42
2022-09-28T08:40:57.816Z,48.15
2022-09-28T08:43:52.298Z,48.98
2022-09-28T08:46:26.954Z,52.11
2022-09-28T08:49:24.056Z,55.11
2022-09-28T08:52:03.368Z,58.88
2022-09-28T08:54:37.316Z,62.87
2022-09-28T08:57:22.509Z,60.27
2022-09-28T08:59:58.524Z,51.68
2022-09-28T09:02:39.334Z,48.10
2022-09-28T09:05:13.853Z,49.12
2022-09-28T09:08:15.490Z,45.60
2022-09-28T09:11:22.749Z,46.98
2022-09-28T09:14:00.301Z,42.68
2022-09-28T09:17:00.633Z,44.61
2022-09-28T09:19:41.141Z,43.16
2022-09-28T09:22:37.644Z,40.93
2022-09-28T09:25:20.646Z,40.65
2022-09-28T09:28:02.463Z,39.64
2022-09-28T09:30:48.981Z,36.08
2022-09-28T09:33:43.412Z,36.47
2022-09-28T09:36:36.908Z,35.83
2022-09-28T09:39:25.427Z,32.45
2022-09-28T09:42:17.912Z,32.24
2022-09-28T09:44:58.102Z,32.02
2022-09-28T09:47:35.822Z,31.12
2022-09-28T09:50:19.721Z,32.52
2022-09-28T09:52:55.781Z,30.97
2022-09-28T09:55:30.268Z,33.14
2022-09-28T09:58:11.052Z,33.16
2022-09-28T10:00:43.353Z,34.30
2022-09-28T10:03:30.006Z,34.32
2022-09-28T10:06:02.532Z,35.40
2022-09-28T10:08:34.369Z,38.80
2022-09-28T10:11:19.178Z,39.37
2022-09-28T10:13:49.365Z,38.56
2022-09-28T10:16:19.407Z,40.21
2022-09-28T10:18:46.454Z,36.73
2022-09-28T10:21:15.098Z,35.47
2022-09-28T10:23:42.404Z,35.50
2022-09-28T10:26:25.237Z,33.30
2022-09-28T10:28:58.146Z,35.05
2022-09-28T10:31:34.665Z,36.42
2022-09-28T10:34:02.357Z,34.79
2022-09-28T10:36:29.791Z,35.68
2022-09-28T10:38:57.979Z,35.56
2022-09-28T10:41:27.629Z,38.56
2022-09-28T10:44:06.503Z,37.14
2022-09-28T10:46:35.381Z,35.78
2022-09-28T10:49:14.290Z,36.76
2022-09-28T10:51:42.486Z,36.53
2022-09-28T10:54:21.034Z,37.57
2022-09-28T10:56:49.914Z,37.44
2022-09-28T10:59:29.632Z,36.61
2022-09-28T11:02:04.848Z,37.14
2022-09-28T11:04:40.098Z,37.92
2022-09-28T11:07:18.347Z,37.52
2022-09-28T11:09:48.952Z,39.39
2022-09-28T11:12:20.472Z,38.11
2022-09-28T11:14:52.819Z,38.66
2022-09-28T11:17:30.632Z,37.66
2022-09-28T11:20:21.502Z,39.39
2022-09-28T11:22:56.074Z,39.81
2022-09-28T11:25:27.146Z,40.90
2022-09-28T11:27:54.091Z,38.75
2022-09-28T11:30:29.353Z,39.87
2022-09-28T11:33:10.699Z,39.40
2022-09-28T11:35:51.907Z,39.01
2022-09-28T11:38:18.854Z,38.35
2022-09-28T11:40:58.690Z,36.92
2022-09-28T11:43:46.951Z,37.12
2022-09-28T11:46:41.302Z,39.29
2022-09-28T11:49:26.256Z,38.79
2022-09-28T11:51:57.004Z,40.06
2022-09-28T11:54:33.773Z,40.56
2022-09-28T11:57:04.202Z,39.61
2022-09-28T11:59:45.072Z,38.61
2022-09-28T12:02:23.627Z,39.93
2022-09-28T12:05:02.379Z,39.71
2022-09-28T12:07:37.647Z,39.13
2022-09-28T12:10:25.721Z,38.37
2022-09-28T12:13:27.581Z,39.17
2022-09-28T12:16:45.291Z,37.90
2022-09-28T12:18:56.375Z,40.32
2022-09-28T12:21:45.627Z,38.55
2022-09-28T12:24:26.138Z,38.12
2022-09-28T12:27:15.516Z,38.32
2022-09-28T12:30:00.331Z,36.90
2022-09-28T12:32:36.227Z,36.38
2022-09-28T12:35:10.811Z,36.13
2022-09-28T12:38:17.602Z,35.74
2022-09-28T12:41:09.331Z,35.17
2022-09-28T12:43:45.303Z,34.98
2022-09-28T12:46:37.246Z,36.90
2022-09-28T12:52:38.458Z,37.38
2022-09-28T12:55:23.578Z,37.80
2022-09-28T12:57:59.596Z,37.39
2022-09-28T13:00:38.047Z,36.80
2022-09-28T13:03:46.383Z,37.78
2022-09-28T13:06:42.547Z,37.78
2022-09-28T13:09:35.139Z,38.81
2022-09-28T13:12:19.261Z,38.68
2022-09-28T13:15:18.874Z,40.10
2022-09-28T13:17:48.780Z,40.35
2022-09-28T13:20:24.481Z,39.00
2022-09-28T13:23:11.711Z,38.02
2022-09-28T13:25:44.772Z,39.74
2022-09-28T13:28:15.597Z,40.65
2022-09-28T13:30:44.504Z,42.09
2022-09-28T13:33:38.541Z,40.88
2022-09-28T13:36:27.913Z,41.76
2022-09-28T13:38:57.303Z,42.34
2022-09-28T13:41:31.754Z,43.81
2022-09-28T13:44:23.885Z,44.63
2022-09-28T13:47:10.015Z,44.42
2022-09-28T13:49:48.764Z,46.71
2022-09-28T13:52:36.050Z,46.48
2022-09-28T13:55:14.740Z,49.11
2022-09-28T13:57:54.223Z,49.68
2022-09-28T14:00:29.347Z,50.61
2022-09-28T14:03:24.367Z,49.43
2022-09-28T14:06:00.772Z,50.10
2022-09-28T14:08:45.494Z,49.06
2022-09-28T14:11:42.050Z,50.13
2022-09-28T14:14:11.404Z,50.26
2022-09-28T14:16:40.291Z,51.38
2022-09-28T14:19:27.731Z,52.59
2022-09-28T14:22:23.815Z,53.29
2022-09-28T14:24:59.897Z,52.67
2022-09-28T14:27:40.226Z,52.86
2022-09-28T14:30:12.863Z,53.04
2022-09-28T14:32:43.240Z,52.98
2022-09-28T14:35:41.732Z,54.20
2022-09-28T14:38:39.303Z,55.49
2022-09-28T14:41:27.150Z,55.52
2022-09-28T14:43:58.696Z,56.06
2022-09-28T14:46:25.524Z,56.13
2022-09-28T14:49:01.798Z,56.29
2022-09-28T14:51:33.972Z,57.48
2022-09-28T14:54:12.976Z,55.63
2022-09-28T14:56:42.969Z,56.67
2022-09-28T14:59:24.930Z,57.99
2022-09-28T15:02:02.617Z,56.27
2022-09-28T15:04:30.943Z,58.33
2022-09-28T15:06:58.216Z,57.57
2022-09-28T15:09:36.589Z,57.34
2022-09-28T15:12:23.448Z,56.96
2022-09-28T15:14:57.745Z,56.25
2022-09-28T15:17:29.428Z,57.59
2022-09-28T15:20:23.292Z,58.03
2022-09-28T15:22:53.435Z,58.15
2022-09-28T15:25:22.479Z,57.73
2022-09-28T15:27:55.443Z,58.38
2022-09-28T15:30:34.827Z,58.82
2022-09-28T15:33:23.045Z,59.54
2022-09-28T15:36:01.863Z,60.63
2022-09-28T15:38:29.377Z,61.07
2022-09-28T15:40:57.505Z,61.77
2022-09-28T15:43:32.964Z,61.84
2022-09-28T15:46:21.530Z,62.68
2022-09-28T15:48:59.188Z,63.60
2022-09-28T15:51:28.399Z,64.61
2022-09-28T15:54:01.394Z,64.81
2022-09-28T15:56:29.642Z,66.53
2022-09-28T15:59:11.567Z,67.01
2022-09-28T16:01:39.883Z,68.81
2022-09-28T16:04:36.582Z,69.05
2022-09-28T16:07:12.560Z,71.22
2022-09-28T16:09:59.786Z,73.26
2022-09-28T16:12:40.950Z,75.55
2022-09-28T16:15:23.455Z,76.88
2022-09-28T16:17:56.925Z,78.35
2022-09-28T16:20:29.586Z,79.58
2022-09-28T16:23:03.558Z,82.18
2022-09-28T16:25:30.486Z,84.35
2022-09-28T16:27:57.604Z,86.94
2022-09-28T16:30:27.389Z,88.80
2022-09-28T16:32:58.452Z,89.96
2022-09-28T16:35:30.147Z,91.42
2022-09-28T16:38:16.546Z,91.55
2022-09-28T16:40:48.058Z,91.27
2022-09-28T16:43:27.163Z,90.34
2022-09-28T16:46:00.200Z,90.14
2022-09-28T16:48:32.031Z,89.91
2022-09-28T16:50:59.579Z,89.55
2022-09-28T16:53:45.398Z,89.11
2022-09-28T16:56:13.261Z,89.11
2022-09-28T16:58:40.106Z,88.58
2022-09-28T17:01:10.078Z,87.77
2022-09-28T17:03:37.303Z,87.39
2022-09-28T17:06:06.297Z,87.39
2022-09-28T17:08:35.572Z,87.54
2022-09-28T17:11:14.930Z,87.95
2022-09-28T17:13:45.258Z,87.36
2022-09-28T17:16:12.243Z,87.43
2022-09-28T17:18:40.099Z,86.73
2022-09-28T17:21:12.312Z,86.13
2022-09-28T17:23:39.339Z,84.69
2022-09-28T17:26:06.541Z,83.78
2022-09-28T17:28:35.795Z,83.04
2022-09-28T17:31:03.706Z,81.91
2022-09-28T17:33:30.940Z,82.10
2022-09-28T17:36:01.411Z,81.64
2022-09-28T17:38:28.689Z,81.80
2022-09-28T17:40:55.648Z,82.21
2022-09-28T17:43:22.601Z,82.14
2022-09-28T17:45:50.776Z,82.37
2022-09-28T17:48:21.849Z,82.36
2022-09-28T17:50:48.935Z,81.83
2022-09-28T17:53:17.231Z,81.46
2022-09-28T17:55:44.065Z,81.72
2022-09-28T17:58:22.087Z,81.35
2022-09-28T18:00:51.125Z,82.17
2022-09-28T18:03:25.242Z,81.77
2022-09-28T18:06:07.101Z,81.71
2022-09-28T18:08:34.448Z,82.10
2022-09-28T18:11:04.482Z,82.09
2022-09-28T18:13:31.422Z,82.51
2022-09-28T18:15:58.540Z,82.01
2022-09-28T18:18:25.915Z,81.72
2022-09-28T18:20:52.953Z,81.69
2022-09-28T18:23:20.244Z,81.43
2022-09-28T18:25:47.489Z,81.63
2022-09-28T18:28:14.571Z,81.49
2022-09-28T18:30:44.358Z,81.86
2022-09-28T18:33:13.625Z,82.57
2022-09-28T18:35:41.133Z,82.83
2022-09-28T18:38:08.122Z,83.18
2022-09-28T18:40:36.015Z,83.44
2022-09-28T18:43:03.765Z,84.17
2022-09-28T18:45:31.324Z,84.11
2022-09-28T18:47:59.675Z,84.53
2022-09-28T18:50:26.651Z,85.05
2022-09-28T18:52:53.518Z,85.06
2022-09-28T18:55:20.566Z,84.96
2022-09-28T18:57:47.604Z,84.74
2022-09-28T19:00:15.281Z,84.34
2022-09-28T19:02:42.851Z,84.45
2022-09-28T19:05:09.912Z,84.75
2022-09-28T19:07:36.780Z,84.49
2022-09-28T19:10:04.394Z,84.46
2022-09-28T19:12:32.571Z,84.04
2022-09-28T19:14:59.836Z,83.80
2022-09-28T19:17:26.874Z,83.90
2022-09-28T19:19:53.699Z,83.86
2022-09-28T19:22:20.445Z,83.96
2022-09-28T19:24:47.495Z,84.17
2022-09-28T19:27:14.247Z,84.49
2022-09-28T19:29:41.012Z,84.94
2022-09-28T19:32:07.972Z,84.92
2022-09-28T19:34:34.842Z,84.92
2022-09-28T19:37:03.908Z,84.81
2022-09-28T19:39:32.032Z,84.51
2022-09-28T19:41:59.896Z,84.52
2022-09-28T19:44:28.853Z,84.06
2022-09-28T19:46:59.647Z,83.34
2022-09-28T19:49:27.873Z,82.43
2022-09-28T19:52:11.987Z,81.11
2022-09-28T19:54:41.234Z,79.20
2022-09-28T20:09:28.908Z,74.50
2022-09-28T20:11:56.255Z,75.17
2022-09-28T20:14:24.658Z,75.41
2022-09-28T20:16:55.021Z,75.79
2022-09-28T20:19:23.312Z,76.29
2022-09-28T20:21:50.698Z,76.68
2022-09-28T20:24:18.214Z,77.27
2022-09-28T20:26:45.965Z,77.74
2022-09-28T20:29:13.065Z,78.17
2022-09-28T20:31:40.119Z,77.78
2022-09-28T20:34:07.586Z,78.16
2022-09-28T20:36:34.797Z,78.22
2022-09-28T20:39:02.626Z,78.27
2022-09-28T20:41:36.769Z,78.09
2022-09-28T20:44:06.308Z,78.45
2022-09-28T20:46:36.051Z,78.28
2022-09-28T20:49:04.021Z,78.80
2022-09-28T20:51:31.674Z,78.92
2022-09-28T20:53:59.734Z,78.99
2022-09-28T20:56:37.785Z,78.93
2022-09-28T20:59:07.927Z,79.35
2022-09-28T21:01:35.420Z,79.83
2022-09-28T21:04:04.786Z,80.16
2022-09-28T21:06:35.196Z,80.44
2022-09-28T21:09:02.159Z,80.76
2022-09-28T21:11:29.926Z,80.63
2022-09-28T21:14:00.586Z,81.43
2022-09-28T21:16:32.691Z,81.60
2022-09-28T21:18:59.872Z,81.73
2022-09-28T21:21:26.913Z,81.58
2022-09-28T21:23:55.032Z,81.85
2022-09-28T21:26:27.029Z,81.56
2022-09-28T21:28:59.354Z,82.02
2022-09-28T21:31:29.592Z,82.46
2022-09-28T21:33:57.703Z,82.86
2022-09-28T21:36:25.140Z,82.79
2022-09-28T21:38:53.548Z,82.84
2022-09-28T21:41:20.340Z,83.50
2022-09-28T21:43:47.095Z,84.01
2022-09-28T21:46:14.208Z,84.65
2022-09-28T21:48:41.268Z,84.84
2022-09-28T21:51:11.180Z,84.71
2022-09-28T21:53:38.593Z,84.58
2022-09-28T21:56:09.332Z,84.25
2022-09-28T21:58:36.454Z,84.22
2022-09-28T22:01:14.727Z,84.13
2022-09-28T22:03:44.048Z,83.87
2022-09-28T22:06:11.878Z,83.72
2022-09-28T22:08:39.243Z,84.14
2022-09-28T22:11:08.097Z,84.08
2022-09-28T22:13:57.675Z,83.64
2022-09-28T22:16:27.273Z,83.54
2022-09-28T22:18:54.488Z,83.54
2022-09-28T22:21:23.783Z,84.08
2022-09-28T22:23:51.313Z,83.69
2022-09-28T22:26:25.969Z,83.84
2022-09-28T22:28:55.205Z,84.22
2022-09-28T22:31:26.058Z,84.48
2022-09-28T22:33:53.529Z,84.57
2022-09-28T22:36:20.425Z,84.64
2022-09-28T22:38:49.335Z,84.71
2022-09-28T22:41:18.782Z,85.06
2022-09-28T22:43:45.551Z,84.98
2022-09-28T22:46:17.901Z,85.14
2022-09-28T22:48:53.478Z,85.30
2022-09-28T22:51:21.544Z,85.24
2022-09-28T22:53:48.436Z,84.87
2022-09-28T22:56:18.687Z,84.94
2022-09-28T22:58:46.930Z,84.67
2022-09-28T23:01:26.311Z,84.65
2022-09-28T23:03:54.510Z,84.22
2022-09-28T23:06:25.009Z,83.93
2022-09-28T23:08:52.913Z,83.68
2022-09-28T23:11:20.320Z,84.01
2022-09-28T23:13:51.486Z,84.00
2022-09-28T23:16:19.001Z,84.13
2022-09-28T23:18:46.212Z,84.26
2022-09-28T23:21:18.174Z,84.52
2022-09-28T23:23:46.213Z,84.67
2022-09-28T23:26:16.034Z,84.38
2022-09-28T23:28:44.107Z,84.33
2022-09-28T23:31:25.405Z,84.03
2022-09-28T23:33:56.737Z,83.82
2022-09-28T23:36:23.687Z,83.98
2022-09-28T23:38:50.520Z,83.31
2022-09-28T23:41:17.554Z,82.95
2022-09-28T23:43:44.390Z,82.33
2022-09-28T23:46:11.224Z,82.18
2022-09-28T23:48:38.782Z,81.75
2022-09-28T23:51:05.729Z,81.48
2022-09-28T23:53:32.643Z,81.30
2022-09-28T23:55:59.985Z,81.18
2022-09-28T23:58:27.604Z,81.07
